Time;durP1;ratioP1;P1;durP2;ratioP2;P2;SDS_P1;SDS_P2;PMS_P1;PMS_P2;Temp;Humidity;BMP_temperature;BMP_pressure;BME280_temperature;BME280_humidity;BME280_pressure;Samples;Min_cycle;Max_cycle;Signal;HPM_P1;HPM_P2
2021/04/09 00:00:52;;;;;;;13.10;11.00;;;3.80;79.40;;;;;;4928625;29;20205;-87
2021/04/09 00:03:18;;;;;;;16.58;12.27;;;3.80;79.60;;;;;;4930294;29;20194;-86
2021/04/09 00:05:45;;;;;;;17.63;11.98;;;3.70;79.80;;;;;;4928786;28;20241;-87
2021/04/09 00:08:11;;;;;;;18.67;12.15;;;3.70;80.40;;;;;;4923052;29;20220;-88
2021/04/09 00:10:40;;;;;;;17.48;11.40;;;3.70;80.40;;;;;;4918358;29;20220;-86
2021/04/09 00:13:08;;;;;;;15.30;11.85;;;3.70;80.40;;;;;;4913039;29;20215;-87
2021/04/09 00:15:35;;;;;;;17.30;11.27;;;3.60;80.80;;;;;;4912239;29;20201;-87
2021/04/09 00:18:01;;;;;;;15.57;11.77;;;3.60;81.00;;;;;;4920638;29;20200;-86
2021/04/09 00:20:27;;;;;;;15.50;11.90;;;3.60;81.10;;;;;;4915439;29;20209;-87
2021/04/09 00:22:54;;;;;;;18.55;12.93;;;3.60;81.20;;;;;;4914828;29;20216;-87
2021/04/09 00:25:21;;;;;;;15.20;11.50;;;3.60;81.50;;;;;;4927196;29;20224;-86
2021/04/09 00:27:49;;;;;;;16.20;11.73;;;3.50;81.90;;;;;;4923571;29;20224;-88
2021/04/09 00:30:19;;;;;;;12.60;10.88;;;3.50;82.20;;;;;;4919958;29;20209;-87
2021/04/09 00:32:46;;;;;;;13.60;12.30;;;3.50;82.20;;;;;;4927196;29;20212;-87
2021/04/09 00:35:14;;;;;;;13.18;10.10;;;3.50;82.60;;;;;;4927520;28;20203;-87
2021/04/09 00:37:40;;;;;;;14.65;11.23;;;3.50;82.80;;;;;;4907663;29;20703;-88
2021/04/09 00:40:07;;;;;;;17.60;11.40;;;3.60;82.90;;;;;;4909084;29;20216;-88
2021/04/09 00:42:34;;;;;;;16.70;11.55;;;3.60;83.00;;;;;;4909693;29;20232;-87
2021/04/09 00:45:01;;;;;;;15.02;11.48;;;3.60;83.10;;;;;;4909437;29;20228;-88
2021/04/09 00:47:30;;;;;;;12.02;10.43;;;3.50;83.30;;;;;;4907139;29;20227;-87
2021/04/09 00:49:56;;;;;;;16.92;11.75;;;3.50;83.40;;;;;;4911219;29;20215;-86
2021/04/09 00:52:25;;;;;;;14.30;12.45;;;3.30;83.70;;;;;;4912974;29;20664;-87
2021/04/09 00:54:52;;;;;;;19.08;14.35;;;3.20;84.60;;;;;;4904729;29;20210;-87
2021/04/09 00:57:18;;;;;;;15.82;12.38;;;3.20;84.80;;;;;;4915097;29;20231;-87
2021/04/09 00:59:48;;;;;;;16.48;12.35;;;3.20;85.30;;;;;;4918512;29;20199;-87
2021/04/09 01:02:15;;;;;;;21.58;13.32;;;3.20;85.50;;;;;;4907604;29;20227;-87
2021/04/09 01:04:42;;;;;;;21.67;13.10;;;3.20;85.70;;;;;;4906306;29;20220;-86
2021/04/09 01:07:08;;;;;;;21.35;14.45;;;3.20;86.00;;;;;;4911910;29;20223;-87
2021/04/09 01:09:35;;;;;;;15.57;13.18;;;3.30;86.00;;;;;;4927485;29;20208;-87
2021/04/09 01:12:02;;;;;;;17.27;12.55;;;3.30;85.60;;;;;;4920317;29;20199;-87
2021/04/09 01:14:28;;;;;;;15.15;12.40;;;3.30;85.10;;;;;;4912666;29;20204;-86
2021/04/09 01:17:02;;;;;;;14.73;13.15;;;3.40;84.90;;;;;;4917404;29;20300;-88
2021/04/09 01:19:59;;;;;;;15.88;13.07;;;3.40;84.70;;;;;;4913203;29;20213;-87
2021/04/09 01:22:36;;;;;;;17.27;12.30;;;3.40;85.20;;;;;;4912486;29;20327;-87
2021/04/09 01:25:27;;;;;;;15.57;12.88;;;3.30;85.50;;;;;;4922736;29;20231;-85
2021/04/09 01:28:05;;;;;;;20.30;13.52;;;3.30;85.80;;;;;;4914526;29;20241;-86
2021/04/09 01:31:13;;;;;;;17.40;12.85;;;3.30;86.00;;;;;;4911535;29;20203;-86
2021/04/09 01:33:44;;;;;;;18.25;14.18;;;3.30;86.60;;;;;;4891559;29;20596;-87
2021/04/09 01:36:13;;;;;;;17.73;14.25;;;3.20;86.90;;;;;;4903718;29;20567;-86
2021/04/09 01:38:46;;;;;;;16.85;13.77;;;3.20;86.90;;;;;;4908086;29;20203;-87
2021/04/09 01:41:13;;;;;;;19.90;13.35;;;3.20;86.90;;;;;;4905361;29;20679;-87
2021/04/09 01:43:43;;;;;;;17.35;12.95;;;3.10;87.40;;;;;;4905222;29;20654;-87
2021/04/09 01:46:11;;;;;;;15.32;12.35;;;3.00;87.50;;;;;;4906293;29;20765;-87
2021/04/09 01:48:41;;;;;;;14.90;12.32;;;2.90;87.90;;;;;;4915038;29;20199;-87
2021/04/09 01:51:09;;;;;;;15.52;12.30;;;2.90;88.40;;;;;;4910817;29;20195;-86
2021/04/09 01:53:37;;;;;;;15.30;11.95;;;2.90;89.40;;;;;;4907558;29;20211;-88
2021/04/09 01:56:04;;;;;;;19.38;14.10;;;2.90;89.30;;;;;;4927452;28;20237;-88
2021/04/09 01:58:30;;;;;;;17.08;14.02;;;2.90;89.10;;;;;;4931997;28;20185;-86
2021/04/09 02:01:24;;;;;;;17.42;13.68;;;2.90;89.30;;;;;;4928764;28;20212;-86
2021/04/09 02:03:54;;;;;;;21.90;14.88;;;2.80;90.00;;;;;;4932991;28;20172;-87
2021/04/09 02:06:22;;;;;;;14.95;13.20;;;2.80;90.40;;;;;;4924670;29;20225;-86
2021/04/09 02:08:49;;;;;;;17.90;15.18;;;2.80;90.40;;;;;;4929011;29;20198;-86
2021/04/09 02:11:16;;;;;;;18.00;14.02;;;2.80;90.40;;;;;;4921833;28;20186;-86
2021/04/09 02:13:44;;;;;;;18.73;14.70;;;2.80;90.40;;;;;;4942862;28;20214;-86
2021/04/09 02:16:11;;;;;;;26.33;14.15;;;2.90;90.40;;;;;;4925595;28;20219;-85
2021/04/09 02:18:37;;;;;;;21.13;15.48;;;2.80;90.30;;;;;;4922959;29;20209;-87
2021/04/09 02:21:05;;;;;;;19.17;14.88;;;2.80;90.60;;;;;;4917753;29;20199;-87
2021/04/09 02:23:32;;;;;;;15.48;13.85;;;2.80;90.60;;;;;;4924960;29;20211;-88
2021/04/09 02:25:59;;;;;;;15.93;13.32;;;2.90;90.60;;;;;;4928908;29;20354;-87
2021/04/09 02:28:26;;;;;;;13.88;12.30;;;2.80;90.70;;;;;;4929283;28;20208;-87
2021/04/09 02:31:06;;;;;;;17.38;13.90;;;2.80;90.80;;;;;;4915029;29;20204;-87
2021/04/09 02:33:33;;;;;;;21.65;15.00;;;2.70;90.90;;;;;;4925396;29;20227;-87
2021/04/09 02:36:08;;;;;;;20.92;14.38;;;2.70;91.00;;;;;;4921913;29;20228;-86
2021/04/09 02:38:35;;;;;;;16.83;14.35;;;2.70;91.40;;;;;;4921169;29;20240;-86
2021/04/09 02:41:03;;;;;;;18.63;13.25;;;2.70;91.30;;;;;;4912848;29;20204;-87
2021/04/09 02:43:30;;;;;;;16.73;12.20;;;2.60;91.30;;;;;;4918093;29;20230;-86
2021/04/09 02:45:57;;;;;;;27.35;14.55;;;2.80;91.30;;;;;;4916272;29;20254;-86
2021/04/09 02:48:27;;;;;;;16.27;13.13;;;2.70;91.20;;;;;;4916758;29;20280;-86
2021/04/09 02:50:54;;;;;;;16.75;13.63;;;2.80;91.10;;;;;;4912659;29;20200;-87
2021/04/09 02:53:27;;;;;;;19.77;13.90;;;2.70;91.20;;;;;;4922643;29;20208;-87
2021/04/09 02:55:55;;;;;;;18.83;14.10;;;2.60;91.50;;;;;;4928634;29;20204;-86
2021/04/09 02:58:22;;;;;;;16.10;13.00;;;2.70;91.60;;;;;;4918162;29;20203;-87
2021/04/09 03:00:50;;;;;;;16.27;13.23;;;2.70;91.40;;;;;;4931746;29;20187;-86
2021/04/09 03:03:18;;;;;;;21.48;15.32;;;2.70;91.30;;;;;;4930284;28;20195;-87
2021/04/09 03:05:45;;;;;;;17.42;13.68;;;2.70;91.50;;;;;;4915665;29;20228;-86
2021/04/09 03:08:12;;;;;;;18.85;13.80;;;2.60;91.40;;;;;;4906406;29;20209;-87
2021/04/09 03:10:40;;;;;;;18.48;11.70;;;2.70;91.60;;;;;;4905673;29;20199;-86
2021/04/09 03:13:06;;;;;;;15.68;13.93;;;2.70;91.30;;;;;;4903589;29;20215;-87
2021/04/09 03:15:37;;;;;;;16.25;13.48;;;2.70;91.20;;;;;;4906462;29;20203;-87
2021/04/09 03:18:08;;;;;;;18.33;13.05;;;2.70;91.30;;;;;;4907959;29;20210;-87
2021/04/09 03:20:34;;;;;;;16.48;13.63;;;2.70;91.10;;;;;;4911609;29;20640;-87
2021/04/09 03:23:01;;;;;;;21.77;14.40;;;2.60;91.20;;;;;;4908455;29;20205;-88
2021/04/09 03:25:27;;;;;;;17.60;12.82;;;2.60;91.50;;;;;;4909390;29;20227;-86
2021/04/09 03:27:55;;;;;;;16.40;12.75;;;2.60;91.60;;;;;;4911216;29;20228;-87
2021/04/09 03:30:23;;;;;;;18.98;13.65;;;2.60;91.80;;;;;;4910472;29;20231;-86
2021/04/09 03:32:50;;;;;;;19.25;12.95;;;2.60;91.70;;;;;;4911685;29;20200;-86
2021/04/09 03:35:17;;;;;;;18.30;13.23;;;2.60;91.80;;;;;;4907120;29;20283;-87
2021/04/09 03:37:43;;;;;;;18.05;13.43;;;2.60;91.80;;;;;;4908579;29;20216;-87
2021/04/09 03:40:11;;;;;;;16.58;13.07;;;2.60;91.90;;;;;;4907498;29;20203;-88
2021/04/09 03:42:37;;;;;;;18.75;14.13;;;2.60;91.90;;;;;;4908032;29;20532;-87
2021/04/09 03:45:06;;;;;;;14.93;13.32;;;2.60;92.10;;;;;;4904081;29;20592;-88
2021/04/09 03:47:32;;;;;;;16.55;14.75;;;2.60;92.20;;;;;;4909718;29;20230;-87
2021/04/09 03:49:59;;;;;;;18.58;14.32;;;2.50;92.40;;;;;;4915766;29;20207;-88
2021/04/09 03:52:25;;;;;;;19.45;13.02;;;2.50;92.40;;;;;;4910841;29;20204;-88
2021/04/09 03:54:51;;;;;;;21.30;14.43;;;2.60;92.50;;;;;;4907792;29;20230;-87
2021/04/09 03:57:18;;;;;;;22.42;14.38;;;2.60;92.20;;;;;;4920061;29;20238;-87
2021/04/09 03:59:44;;;;;;;17.90;14.63;;;2.50;92.40;;;;;;4923010;29;20199;-88
2021/04/09 04:02:11;;;;;;;19.92;15.55;;;2.40;92.70;;;;;;4922956;29;20222;-88
2021/04/09 04:04:37;;;;;;;19.13;13.70;;;2.40;93.00;;;;;;4920090;29;20259;-88
2021/04/09 04:07:04;;;;;;;28.25;14.75;;;2.50;93.10;;;;;;4906720;29;20227;-87
2021/04/09 04:09:30;;;;;;;21.48;15.32;;;2.40;93.00;;;;;;4906826;29;20195;-87
2021/04/09 04:11:56;;;;;;;15.48;13.35;;;2.40;93.20;;;;;;4908527;29;20199;-87
2021/04/09 04:14:23;;;;;;;20.80;13.93;;;2.40;93.20;;;;;;4913547;29;20203;-87
2021/04/09 04:16:49;;;;;;;19.90;13.07;;;2.30;93.40;;;;;;4925440;29;20242;-86
2021/04/09 04:19:17;;;;;;;17.25;14.18;;;2.30;93.70;;;;;;4915487;29;20211;-86
2021/04/09 04:21:45;;;;;;;19.65;14.25;;;2.30;93.80;;;;;;4920240;29;20198;-87
2021/04/09 04:24:12;;;;;;;16.50;13.65;;;2.30;93.80;;;;;;4920386;29;20788;-87
2021/04/09 04:26:39;;;;;;;18.02;14.48;;;2.30;93.80;;;;;;4927927;29;20253;-87
2021/04/09 04:29:11;;;;;;;23.05;15.30;;;2.30;94.00;;;;;;4936312;28;20207;-88
2021/04/09 04:31:38;;;;;;;20.35;13.65;;;2.20;94.10;;;;;;4931338;28;20179;-86
2021/04/09 04:34:05;;;;;;;19.02;15.00;;;2.20;94.30;;;;;;4913446;28;20217;-87
2021/04/09 04:36:33;;;;;;;22.70;12.25;;;2.20;94.20;;;;;;4906939;29;20211;-87
2021/04/09 04:39:00;;;;;;;15.00;12.80;;;2.20;94.40;;;;;;4915920;29;20226;-87
2021/04/09 04:41:30;;;;;;;20.20;12.40;;;2.20;94.30;;;;;;4908313;29;20200;-88
2021/04/09 04:43:57;;;;;;;19.80;13.20;;;2.30;94.30;;;;;;4906413;29;20668;-87
2021/04/09 04:46:24;;;;;;;25.58;13.63;;;2.30;94.20;;;;;;4879656;29;20240;-88
2021/04/09 04:48:50;;;;;;;14.70;12.82;;;2.30;94.00;;;;;;4880689;29;20204;-88
2021/04/09 04:51:17;;;;;;;23.15;13.20;;;2.30;93.90;;;;;;4898778;29;20208;-88
2021/04/09 04:53:45;;;;;;;21.80;13.23;;;2.20;93.90;;;;;;4897875;29;20219;-88
2021/04/09 04:56:11;;;;;;;21.15;13.18;;;2.10;94.30;;;;;;4898009;29;20242;-87
2021/04/09 04:58:37;;;;;;;21.25;13.25;;;2.10;94.60;;;;;;4899309;29;20264;-87
2021/04/09 05:01:03;;;;;;;22.60;14.23;;;2.20;94.70;;;;;;4900264;29;20214;-87
2021/04/09 05:03:30;;;;;;;23.10;14.18;;;2.20;94.80;;;;;;4897991;29;20203;-87
2021/04/09 05:05:56;;;;;;;23.00;13.43;;;2.30;94.70;;;;;;4880315;29;20232;-87
2021/04/09 05:08:22;;;;;;;19.77;14.45;;;2.30;94.50;;;;;;4882187;29;20214;-86
2021/04/09 05:10:49;;;;;;;17.83;13.02;;;2.40;94.50;;;;;;4884545;29;20268;-86
2021/04/09 05:13:16;;;;;;;22.55;13.52;;;2.50;93.90;;;;;;4884622;29;20212;-86
2021/04/09 05:15:42;;;;;;;22.02;13.10;;;2.50;93.90;;;;;;4883679;29;20211;-88
2021/04/09 05:18:09;;;;;;;17.02;13.50;;;2.60;94.00;;;;;;4883089;29;20220;-87
2021/04/09 05:20:35;;;;;;;20.20;13.50;;;2.70;93.70;;;;;;4892800;29;20204;-87
2021/04/09 05:23:01;;;;;;;20.13;13.85;;;2.80;93.10;;;;;;4908512;29;20208;-87
2021/04/09 05:25:28;;;;;;;23.30;15.50;;;2.80;93.20;;;;;;4917014;29;20222;-87
2021/04/09 05:27:55;;;;;;;22.48;14.52;;;2.90;92.80;;;;;;4906221;29;20238;-88
2021/04/09 05:30:22;;;;;;;16.55;13.00;;;2.90;92.80;;;;;;4905378;29;20208;-86
2021/04/09 05:32:49;;;;;;;18.73;12.90;;;2.90;92.80;;;;;;4906282;29;20230;-86
2021/04/09 05:35:16;;;;;;;18.65;13.40;;;3.10;92.80;;;;;;4922788;29;20210;-87
2021/04/09 05:37:42;;;;;;;15.88;13.00;;;3.20;92.20;;;;;;4923289;29;20230;-86
2021/04/09 05:40:10;;;;;;;20.02;13.25;;;3.30;92.00;;;;;;4918184;29;20265;-86
2021/04/09 05:42:36;;;;;;;22.33;13.60;;;3.40;91.70;;;;;;4906480;29;20215;-86
2021/04/09 05:45:04;;;;;;;22.65;13.30;;;3.40;91.40;;;;;;4909797;29;20220;-86
2021/04/09 05:47:30;;;;;;;17.60;13.73;;;3.50;91.60;;;;;;4908869;29;20623;-87
2021/04/09 05:49:56;;;;;;;17.23;13.50;;;3.50;91.40;;;;;;4905094;29;20201;-88
2021/04/09 05:52:23;;;;;;;17.02;12.70;;;3.60;91.20;;;;;;4897109;29;20210;-86
2021/04/09 05:54:49;;;;;;;20.25;14.23;;;3.70;90.90;;;;;;4887383;29;20585;-88
2021/04/09 05:57:16;;;;;;;24.67;13.98;;;3.80;90.50;;;;;;4884622;29;20726;-87
2021/04/09 05:59:45;;;;;;;14.18;12.23;;;3.80;90.30;;;;;;4886749;29;20658;-85
2021/04/09 06:02:13;;;;;;;16.40;12.27;;;3.90;90.20;;;;;;4895318;29;20649;-87
2021/04/09 06:04:39;;;;;;;15.70;12.70;;;4.00;89.70;;;;;;4910831;29;20208;-88
2021/04/09 06:07:06;;;;;;;16.25;14.20;;;4.10;88.70;;;;;;4918174;29;20239;-87
2021/04/09 06:09:32;;;;;;;20.05;12.32;;;4.10;88.40;;;;;;4920512;29;20188;-87
2021/04/09 06:12:00;;;;;;;21.83;12.70;;;4.10;89.20;;;;;;4914453;29;20228;-88
2021/04/09 06:14:26;;;;;;;18.73;14.48;;;4.30;88.20;;;;;;4900060;29;20476;-87
2021/04/09 06:16:53;;;;;;;14.20;12.57;;;4.40;87.70;;;;;;4894892;29;20232;-87
2021/04/09 06:19:48;;;;;;;17.42;12.07;;;4.60;87.20;;;;;;4891312;29;20300;-88
2021/04/09 06:22:14;;;;;;;12.10;10.05;;;4.70;85.60;;;;;;4896577;29;20239;-88
2021/04/09 06:24:47;;;;;;;15.25;10.13;;;4.80;83.80;;;;;;4912831;29;20300;-89
2021/04/09 06:27:13;;;;;;;13.55;10.40;;;4.90;82.70;;;;;;4910618;29;20260;-87
2021/04/09 06:29:39;;;;;;;15.47;10.50;;;4.90;81.90;;;;;;4917142;29;20212;-87
2021/04/09 06:32:07;;;;;;;21.27;11.50;;;5.10;82.30;;;;;;4904933;29;20458;-87
2021/04/09 06:34:33;;;;;;;26.30;12.13;;;5.20;81.70;;;;;;4922039;29;20463;-86
2021/04/09 06:37:00;;;;;;;22.00;12.30;;;5.40;80.30;;;;;;4912758;29;20897;-87
2021/04/09 06:39:26;;;;;;;15.47;12.07;;;5.50;79.30;;;;;;4903381;29;20473;-88
2021/04/09 06:41:53;;;;;;;17.20;11.90;;;5.60;78.50;;;;;;4899388;29;20499;-86
2021/04/09 06:44:19;;;;;;;16.07;11.60;;;5.70;78.20;;;;;;4889973;29;20490;-88
2021/04/09 06:46:45;;;;;;;15.27;12.00;;;5.90;77.40;;;;;;4883352;29;20495;-86
2021/04/09 06:49:12;;;;;;;17.73;10.50;;;6.10;77.30;;;;;;4896108;29;20448;-87
2021/04/09 06:51:39;;;;;;;12.20;10.87;;;6.30;76.50;;;;;;4898882;29;20444;-88
2021/04/09 06:54:15;;;;;;;13.57;10.17;;;6.40;74.90;;;;;;4908167;29;20458;-87
2021/04/09 06:56:43;;;;;;;14.07;11.70;;;6.50;73.70;;;;;;4800523;29;3209556;-88
2021/04/09 06:59:14;;;;;;;11.87;10.30;;;6.60;73.30;;;;;;4910365;29;20463;-89
2021/04/09 07:01:49;;;;;;;17.10;11.07;;;6.80;72.80;;;;;;4905744;29;20524;-88
2021/04/09 07:04:19;;;;;;;12.80;9.93;;;7.00;70.90;;;;;;4907920;29;20446;-87
2021/04/09 07:06:48;;;;;;;16.43;9.80;;;7.10;70.10;;;;;;4904626;29;21044;-87
2021/04/09 07:09:18;;;;;;;9.80;8.77;;;7.30;69.70;;;;;;4908520;29;20463;-88
2021/04/09 07:11:52;;;;;;;12.73;9.43;;;7.70;68.50;;;;;;4904095;29;20531;-88
2021/04/09 07:14:39;;;;;;;12.10;10.27;;;8.00;67.50;;;;;;4889634;29;20466;-88
2021/04/09 07:17:06;;;;;;;14.20;9.23;;;8.40;66.80;;;;;;4885910;29;20500;-88
2021/04/09 07:19:34;;;;;;;15.37;10.67;;;9.00;64.50;;;;;;4890293;29;20456;-89
2021/04/09 07:22:05;;;;;;;11.57;10.40;;;9.70;62.50;;;;;;4900281;29;20463;-88
2021/04/09 07:24:36;;;;;;;12.10;9.37;;;9.80;60.30;;;;;;4909952;29;20455;-87
2021/04/09 07:27:05;;;;;;;10.37;8.20;;;10.10;58.30;;;;;;4916399;29;20491;-89
2021/04/09 07:29:40;;;;;;;14.43;8.90;;;10.20;57.40;;;;;;4921999;29;20462;-87
2021/04/09 07:32:34;;;;;;;11.47;9.27;;;10.50;56.80;;;;;;4909573;29;20451;-87
2021/04/09 07:35:04;;;;;;;14.97;9.63;;;10.70;55.60;;;;;;4904916;29;20460;-88
2021/04/09 07:37:47;;;;;;;11.23;8.70;;;10.80;55.00;;;;;;4903914;29;20908;-88
2021/04/09 07:40:17;;;;;;;12.53;9.83;;;11.00;55.00;;;;;;4909612;29;20435;-88
2021/04/09 07:42:43;;;;;;;13.77;9.80;;;11.10;54.30;;;;;;4897025;29;20459;-89
2021/04/09 07:45:12;;;;;;;9.87;8.60;;;11.20;53.80;;;;;;4887236;29;20805;-88
2021/04/09 07:47:58;;;;;;;12.50;8.83;;;11.20;53.40;;;;;;4886376;29;20500;-86
2021/04/09 07:50:39;;;;;;;9.57;8.67;;;11.20;53.60;;;;;;4884029;29;20468;-87
2021/04/09 07:53:07;;;;;;;9.80;8.50;;;11.40;53.30;;;;;;4910130;29;20461;-87
2021/04/09 07:58:36;;;;;;;9.60;7.77;;;10.90;52.80;;;;;;4908860;29;20471;-87
2021/04/09 08:01:06;;;;;;;10.80;8.27;;;11.00;53.10;;;;;;4904150;29;20464;-88
2021/04/09 08:03:35;;;;;;;10.90;9.00;;;11.00;53.50;;;;;;4885036;29;20472;-86
2021/04/09 08:06:09;;;;;;;11.20;9.00;;;10.80;53.40;;;;;;4887699;29;20549;-87
2021/04/09 08:08:37;;;;;;;11.73;8.53;;;10.90;53.50;;;;;;4903734;29;20455;-88
2021/04/09 08:11:34;;;;;;;10.47;8.33;;;11.10;53.60;;;;;;4920231;29;20494;-86
2021/04/09 08:14:06;;;;;;;14.73;9.90;;;11.20;53.30;;;;;;4915059;29;20459;-87
2021/04/09 08:16:49;;;;;;;16.07;10.43;;;11.10;53.70;;;;;;4918355;29;20456;-87
2021/04/09 08:19:29;;;;;;;12.40;10.30;;;11.80;53.90;;;;;;4921742;29;20428;-87
2021/04/09 08:22:39;;;;;;;11.17;9.20;;;12.30;51.90;;;;;;4922205;29;20467;-85
2021/04/09 08:25:07;;;;;;;10.30;9.03;;;12.10;51.50;;;;;;4937437;28;20423;-86
2021/04/09 08:27:38;;;;;;;10.33;9.23;;;11.90;51.90;;;;;;4932665;29;20484;-86
2021/04/09 08:30:08;;;;;;;12.93;9.57;;;11.90;51.90;;;;;;4932808;29;20479;-88
2021/04/09 08:41:18;;;;;;;13.10;9.97;;;11.90;52.50;;;;;;4901502;29;20475;-86
2021/04/09 08:43:51;;;;;;;10.87;8.90;;;11.90;52.80;;;;;;4843693;29;20463;-87
2021/04/09 08:47:07;;;;;;;15.80;9.60;;;12.20;52.60;;;;;;4895359;29;20498;-87
2021/04/09 08:50:08;;;;;;;14.70;9.87;;;12.00;52.10;;;;;;4894011;29;20498;-87
2021/04/09 08:52:43;;;;;;;13.03;9.57;;;12.00;52.70;;;;;;4892694;29;20466;-87
2021/04/09 08:55:16;;;;;;;13.07;11.20;;;12.20;52.50;;;;;;4900582;29;20464;-87
2021/04/09 08:57:45;;;;;;;11.47;9.63;;;12.30;52.20;;;;;;4889287;29;20851;-85
2021/04/09 09:00:20;;;;;;;14.53;9.70;;;12.50;52.00;;;;;;4907920;29;20460;-83
2021/04/09 09:02:49;;;;;;;8.77;7.77;;;12.50;51.90;;;;;;4911125;29;20820;-84
2021/04/09 09:05:18;;;;;;;14.00;8.93;;;12.70;51.50;;;;;;4910076;29;20519;-87
2021/04/09 09:08:06;;;;;;;14.80;8.97;;;12.90;51.10;;;;;;4907779;29;20582;-87
2021/04/09 09:10:53;;;;;;;12.63;11.37;;;13.00;49.90;;;;;;4905394;29;20459;-87
2021/04/09 09:13:31;;;;;;;13.43;8.03;;;13.30;49.70;;;;;;4892610;29;20432;-87
2021/04/09 09:16:20;;;;;;;12.37;8.17;;;13.60;49.40;;;;;;4909968;29;20490;-87
2021/04/09 09:18:48;;;;;;;12.97;8.10;;;13.90;49.20;;;;;;4906357;29;20450;-87
2021/04/09 09:21:38;;;;;;;9.33;8.10;;;13.90;48.20;;;;;;4911810;29;20483;-88
2021/04/09 09:24:17;;;;;;;11.90;8.63;;;14.10;47.60;;;;;;4900201;29;20449;-87
2021/04/09 09:26:44;;;;;;;12.50;7.90;;;14.10;47.60;;;;;;4889118;29;20492;-86
2021/04/09 09:29:14;;;;;;;9.97;6.77;;;14.10;47.70;;;;;;4900623;29;20476;-86
2021/04/09 09:31:42;;;;;;;9.73;7.00;;;14.10;47.50;;;;;;4909906;29;20459;-87
2021/04/09 09:34:44;;;;;;;8.63;7.63;;;14.10;47.30;;;;;;4922375;29;20515;-87
2021/04/09 09:37:13;;;;;;;12.10;6.47;;;14.20;46.20;;;;;;4914883;29;20471;-88
2021/04/09 09:39:41;;;;;;;10.47;6.60;;;14.20;46.30;;;;;;4910080;29;20444;-91
2021/04/09 09:42:12;;;;;;;8.43;6.70;;;14.50;47.00;;;;;;4921223;29;20513;-90
2021/04/09 09:44:46;;;;;;;7.60;6.87;;;14.70;46.00;;;;;;4915910;29;20464;-89
2021/04/09 09:47:27;;;;;;;7.97;6.60;;;15.00;45.00;;;;;;4909639;29;20510;-87
2021/04/09 09:50:20;;;;;;;9.93;7.80;;;15.10;45.50;;;;;;4907515;29;20462;-88
2021/04/09 09:56:31;;;;;;;8.03;5.93;;;15.10;45.10;;;;;;4804027;29;20933;-86
2021/04/09 09:58:58;;;;;;;9.73;6.00;;;15.10;43.80;;;;;;4846821;29;20520;-87
2021/04/09 10:01:26;;;;;;;8.27;6.70;;;15.30;44.00;;;;;;4917102;29;20488;-86
2021/04/09 10:03:54;;;;;;;9.63;6.13;;;15.40;44.00;;;;;;4914956;29;20471;-86
2021/04/09 10:06:27;;;;;;;8.70;5.90;;;15.60;43.10;;;;;;4913531;29;20489;-86
2021/04/09 10:08:53;;;;;;;5.87;5.30;;;15.70;42.70;;;;;;4918475;29;20489;-87
2021/04/09 10:11:20;;;;;;;8.60;5.63;;;16.10;40.60;;;;;;4911301;29;20456;-87
2021/04/09 10:13:49;;;;;;;9.83;5.90;;;16.30;41.10;;;;;;4914445;29;20447;-88
2021/04/09 10:16:16;;;;;;;5.83;5.33;;;16.40;40.50;;;;;;4919914;29;20462;-87
2021/04/09 10:18:46;;;;;;;4.83;4.10;;;16.70;39.40;;;;;;4919831;29;20443;-87
2021/04/09 10:21:16;;;;;;;7.30;5.57;;;16.70;36.40;;;;;;4915499;29;20460;-88
2021/04/09 10:23:43;;;;;;;7.80;4.17;;;16.40;37.60;;;;;;4904940;29;20451;-87
2021/04/09 10:26:10;;;;;;;6.03;3.70;;;16.50;38.30;;;;;;4914544;29;20491;-90
2021/04/09 10:28:44;;;;;;;5.53;3.57;;;16.70;36.80;;;;;;4901909;29;20498;-92
2021/04/09 10:31:12;;;;;;;4.70;3.10;;;17.00;35.80;;;;;;4920841;29;21289;-86
2021/04/09 10:33:39;;;;;;;6.77;3.93;;;17.10;34.80;;;;;;4889595;29;20520;-86
2021/04/09 10:36:18;;;;;;;5.67;3.50;;;16.90;35.10;;;;;;4902161;29;20484;-86
2021/04/09 10:38:45;;;;;;;4.83;3.90;;;17.50;35.80;;;;;;4913463;29;20960;-87
2021/04/09 10:41:26;;;;;;;4.00;3.13;;;17.60;35.50;;;;;;4915068;29;20456;-87
2021/04/09 10:43:58;;;;;;;7.30;4.00;;;17.10;34.50;;;;;;4924009;29;20459;-87
2021/04/09 10:46:25;;;;;;;7.10;3.40;;;16.70;35.50;;;;;;4925991;29;20495;-84
2021/04/09 10:48:58;;;;;;;4.00;3.07;;;16.60;36.20;;;;;;4928824;28;20507;-84
2021/04/09 10:51:28;;;;;;;4.93;4.10;;;16.90;36.30;;;;;;4931677;29;20445;-84
2021/04/09 10:53:55;;;;;;;5.40;3.63;;;17.10;36.00;;;;;;4928740;29;20447;-84
2021/04/09 10:56:21;;;;;;;4.17;3.33;;;16.50;34.80;;;;;;4923501;29;20570;-84
2021/04/09 10:58:48;;;;;;;3.57;3.03;;;16.40;35.90;;;;;;4915888;29;20449;-86
2021/04/09 11:01:15;;;;;;;4.80;3.70;;;16.30;36.10;;;;;;4915980;29;20454;-84
2021/04/09 11:03:42;;;;;;;6.20;3.60;;;16.30;36.10;;;;;;4918687;29;20441;-86
2021/04/09 11:06:09;;;;;;;11.50;5.10;;;16.30;36.70;;;;;;4914184;29;21062;-86
2021/04/09 11:08:39;;;;;;;11.07;5.67;;;16.50;37.70;;;;;;4919231;29;20458;-85
2021/04/09 11:11:08;;;;;;;5.17;4.00;;;16.80;37.10;;;;;;4917153;29;20456;-86
2021/04/09 11:13:36;;;;;;;6.17;3.60;;;16.80;36.90;;;;;;4916450;29;20521;-85
2021/04/09 11:16:04;;;;;;;3.87;3.23;;;16.70;36.50;;;;;;4913049;29;20517;-83
2021/04/09 11:18:51;;;;;;;4.90;2.90;;;16.50;36.00;;;;;;4915672;29;20443;-85
2021/04/09 11:21:44;;;;;;;7.87;3.23;;;16.00;36.40;;;;;;4915064;29;20500;-84
2021/04/09 11:24:13;;;;;;;5.00;4.50;;;15.80;37.20;;;;;;4920242;29;20465;-85
2021/04/09 11:26:39;;;;;;;4.60;3.90;;;16.20;37.50;;;;;;4923025;29;20508;-85
2021/04/09 11:29:06;;;;;;;6.27;3.63;;;16.50;37.20;;;;;;4908377;29;20448;-83
2021/04/09 11:31:33;;;;;;;6.30;4.03;;;16.80;37.30;;;;;;4921060;29;20450;-84
2021/04/09 11:34:05;;;;;;;6.07;3.10;;;16.90;36.90;;;;;;4928471;29;20451;-84
2021/04/09 11:36:40;;;;;;;6.60;3.67;;;16.80;36.60;;;;;;4910898;29;20471;-85
2021/04/09 11:39:12;;;;;;;3.93;3.40;;;17.10;37.10;;;;;;4905428;29;20823;-84
2021/04/09 11:41:40;;;;;;;5.63;4.00;;;17.00;36.50;;;;;;4906107;29;20457;-85
2021/04/09 11:44:32;;;;;;;5.10;3.63;;;16.80;36.10;;;;;;4896134;29;20456;-85
2021/04/09 11:47:21;;;;;;;6.10;3.70;;;16.80;37.10;;;;;;4887667;29;20494;-84
2021/04/09 11:49:59;;;;;;;4.50;3.60;;;17.00;37.10;;;;;;4887512;29;20465;-84
2021/04/09 11:52:25;;;;;;;7.43;3.80;;;16.70;35.70;;;;;;4886530;29;21018;-85
2021/04/09 11:54:52;;;;;;;7.37;3.50;;;16.60;36.10;;;;;;4903318;29;20459;-85
2021/04/09 11:57:26;;;;;;;3.93;3.20;;;16.60;36.70;;;;;;4905684;29;20495;-85
2021/04/09 11:59:54;;;;;;;7.80;3.13;;;16.60;36.30;;;;;;4904651;29;20494;-83
2021/04/09 12:02:23;;;;;;;4.40;3.93;;;16.30;36.10;;;;;;4905720;29;20468;-84
2021/04/09 12:04:50;;;;;;;4.30;3.60;;;16.40;36.70;;;;;;4888027;29;20457;-85
2021/04/09 12:07:20;;;;;;;3.77;3.30;;;16.70;36.80;;;;;;4886949;29;20499;-85
2021/04/09 12:09:49;;;;;;;3.37;3.10;;;17.20;36.50;;;;;;4887963;29;20508;-84
2021/04/09 12:12:17;;;;;;;8.57;3.03;;;17.80;35.20;;;;;;4898548;29;20448;-82
2021/04/09 12:14:46;;;;;;;4.90;3.93;;;18.40;34.20;;;;;;4905767;29;20829;-83
2021/04/09 12:17:15;;;;;;;5.60;3.93;;;19.80;34.40;;;;;;4906806;29;20479;-83
2021/04/09 12:19:43;;;;;;;6.83;5.33;;;20.70;32.30;;;;;;4906436;29;20455;-85
2021/04/09 12:22:10;;;;;;;6.97;3.57;;;20.10;30.70;;;;;;4899931;29;20490;-84
2021/04/09 12:24:37;;;;;;;4.87;3.90;;;20.00;32.10;;;;;;4893518;29;20453;-83
2021/04/09 12:27:04;;;;;;;2.83;2.53;;;20.40;31.50;;;;;;4892706;29;20496;-84
2021/04/09 12:29:32;;;;;;;5.40;3.43;;;19.90;30.00;;;;;;4892757;29;20443;-81
2021/04/09 12:31:58;;;;;;;4.13;3.10;;;19.00;30.20;;;;;;4892381;29;20453;-81
2021/04/09 12:34:25;;;;;;;4.10;2.97;;;18.70;30.50;;;;;;4890867;29;20460;-81
2021/04/09 12:36:52;;;;;;;4.00;2.57;;;18.60;30.50;;;;;;4892527;29;20603;-82
2021/04/09 12:39:19;;;;;;;5.10;3.63;;;18.30;31.00;;;;;;4892575;29;20962;-81
2021/04/09 12:41:46;;;;;;;4.57;4.07;;;18.40;31.80;;;;;;4899044;29;20458;-82
2021/04/09 12:44:14;;;;;;;11.50;4.37;;;18.90;31.70;;;;;;4912224;29;20467;-84
2021/04/09 12:46:42;;;;;;;4.50;3.67;;;19.70;31.60;;;;;;4915355;29;20500;-83
2021/04/09 12:49:08;;;;;;;5.83;4.07;;;20.60;31.10;;;;;;4911061;29;20470;-81
2021/04/09 12:51:35;;;;;;;4.30;3.10;;;22.00;30.10;;;;;;4909170;29;20478;-80
2021/04/09 12:54:02;;;;;;;4.20;2.60;;;24.00;28.90;;;;;;4906376;29;20924;-82
2021/04/09 12:56:28;;;;;;;4.60;3.47;;;24.20;27.70;;;;;;4914404;29;20483;-82
2021/04/09 12:58:55;;;;;;;4.60;3.20;;;24.10;28.10;;;;;;4910458;29;20463;-83
2021/04/09 13:01:22;;;;;;;3.53;3.10;;;24.80;27.50;;;;;;4907774;29;20470;-82
2021/04/09 13:03:49;;;;;;;5.03;2.67;;;24.10;26.50;;;;;;4885240;29;20456;-82
2021/04/09 13:06:16;;;;;;;6.20;4.97;;;22.50;27.40;;;;;;4882749;29;20502;-82
2021/04/09 13:08:43;;;;;;;4.80;3.17;;;22.00;28.40;;;;;;4883297;29;20844;-81
2021/04/09 13:11:10;;;;;;;3.47;3.17;;;22.30;29.10;;;;;;4883246;29;20691;-80